Time;durP1;ratioP1;P1;durP2;ratioP2;P2;SDS_P1;SDS_P2;PMS_P1;PMS_P2;Temp;Humidity;BMP_temperature;BMP_pressure;BME280_temperature;BME280_humidity;BME280_pressure;Samples;Min_cycle;Max_cycle;Signal;HPM_P1;HPM_P2
2023/06/20 00:00:09;;;;;;;6.50;5.43;;;25.40;99.90;;;;;;5059652;28;20553;-86
2023/06/20 00:02:34;;;;;;;7.27;5.20;;;25.20;99.90;;;;;;5057192;28;20223;-80
2023/06/20 00:05:00;;;;;;;7.10;5.00;;;25.10;99.90;;;;;;5053683;28;20253;-79
2023/06/20 00:07:26;;;;;;;9.40;5.13;;;25.00;99.90;;;;;;5055068;28;20161;-84
2023/06/20 00:09:52;;;;;;;6.60;5.17;;;25.00;99.90;;;;;;5071289;28;20184;-83
2023/06/20 00:12:17;;;;;;;6.90;5.17;;;24.90;99.90;;;;;;5055853;28;20165;-81
2023/06/20 00:14:44;;;;;;;8.63;5.40;;;24.90;99.90;;;;;;5056523;28;20163;-86
2023/06/20 00:17:10;;;;;;;6.97;5.67;;;24.90;99.90;;;;;;5064674;28;20298;-79
2023/06/20 00:19:35;;;;;;;7.33;6.17;;;24.80;99.90;;;;;;5069716;28;20169;-80
2023/06/20 00:22:03;;;;;;;8.13;6.07;;;24.80;99.90;;;;;;5071367;28;20192;-81
2023/06/20 00:24:32;;;;;;;6.83;5.80;;;24.80;99.90;;;;;;5049663;28;20216;-80
2023/06/20 00:27:01;;;;;;;7.50;6.20;;;24.80;99.90;;;;;;5068242;28;20228;-78
2023/06/20 00:29:27;;;;;;;10.40;8.27;;;24.80;99.90;;;;;;5063687;28;20157;-83
2023/06/20 00:31:53;;;;;;;13.63;10.00;;;24.80;99.90;;;;;;5056191;28;20175;-84
2023/06/20 00:34:19;;;;;;;11.43;10.23;;;24.90;99.90;;;;;;5057174;28;20212;-80
2023/06/20 00:36:45;;;;;;;11.17;9.97;;;25.00;99.90;;;;;;5059524;28;20199;-83
2023/06/20 00:39:10;;;;;;;11.30;9.43;;;25.00;99.90;;;;;;5041849;28;20198;-83
2023/06/20 00:41:39;;;;;;;11.67;9.17;;;25.00;99.90;;;;;;5057511;28;20197;-80
2023/06/20 00:44:05;;;;;;;9.77;8.10;;;25.00;99.90;;;;;;5040693;28;20216;-83
2023/06/20 00:46:37;;;;;;;10.43;7.90;;;24.90;99.90;;;;;;5058813;28;20170;-85
2023/06/20 00:49:04;;;;;;;9.10;7.20;;;24.80;99.90;;;;;;5041009;28;20234;-85
2023/06/20 00:51:30;;;;;;;8.00;6.67;;;24.80;99.90;;;;;;5059417;28;20184;-81
2023/06/20 00:53:57;;;;;;;8.03;6.30;;;24.70;99.90;;;;;;5059084;28;20295;-84
2023/06/20 00:56:27;;;;;;;9.93;5.90;;;24.60;99.90;;;;;;5058628;28;20165;-81
2023/06/20 00:58:54;;;;;;;7.87;5.80;;;24.40;99.90;;;;;;5057962;28;20211;-84
2023/06/20 01:01:21;;;;;;;6.87;6.17;;;24.30;99.90;;;;;;5057921;28;20161;-84
2023/06/20 01:03:49;;;;;;;8.10;6.53;;;24.50;99.90;;;;;;5059441;28;20283;-85
2023/06/20 01:06:59;;;;;;;7.47;6.17;;;24.50;99.90;;;;;;5059368;28;20531;-79
2023/06/20 01:09:40;;;;;;;7.93;6.23;;;24.70;99.90;;;;;;5048650;28;20176;-78
2023/06/20 01:12:35;;;;;;;6.73;6.00;;;24.80;99.90;;;;;;5068136;28;20180;-80
2023/06/20 01:15:39;;;;;;;7.00;5.90;;;24.80;99.90;;;;;;5070224;28;20173;-83
2023/06/20 01:18:33;;;;;;;8.13;6.20;;;25.00;99.90;;;;;;4986904;28;20751;-79
2023/06/20 01:21:11;;;;;;;7.60;5.33;;;25.00;99.90;;;;;;4986143;28;20175;-79
2023/06/20 01:23:49;;;;;;;11.67;7.37;;;25.00;99.90;;;;;;5054449;28;20192;-78
2023/06/20 01:26:28;;;;;;;8.47;6.10;;;25.00;99.90;;;;;;5071632;28;20539;-80
2023/06/20 01:29:25;;;;;;;7.70;5.70;;;25.00;99.90;;;;;;5069381;28;20249;-78
2023/06/20 01:31:57;;;;;;;7.47;5.63;;;25.00;99.90;;;;;;5050764;28;20654;-83
2023/06/20 01:34:30;;;;;;;7.50;5.40;;;25.00;99.90;;;;;;5057611;28;20188;-86
2023/06/20 01:37:00;;;;;;;7.40;5.70;;;25.00;99.90;;;;;;5057313;28;20177;-86
2023/06/20 01:39:41;;;;;;;8.20;5.90;;;25.10;99.90;;;;;;5057340;28;20272;-82
2023/06/20 01:42:08;;;;;;;6.77;5.67;;;25.10;99.90;;;;;;5039257;28;20541;-81
2023/06/20 01:44:36;;;;;;;7.07;5.30;;;25.00;99.90;;;;;;5061828;28;20176;-80
2023/06/20 01:47:04;;;;;;;8.87;5.97;;;25.00;99.90;;;;;;5077095;28;20161;-81
2023/06/20 01:49:32;;;;;;;7.97;6.17;;;24.90;99.90;;;;;;5057539;28;20204;-83
2023/06/20 01:51:59;;;;;;;7.93;5.90;;;25.00;99.90;;;;;;5066404;28;20181;-85
2023/06/20 01:54:28;;;;;;;6.50;5.80;;;25.00;99.90;;;;;;5061117;28;20220;-79
2023/06/20 01:57:02;;;;;;;9.20;5.90;;;25.10;99.90;;;;;;5057045;28;20165;-85
2023/06/20 01:59:29;;;;;;;7.73;5.77;;;25.10;99.90;;;;;;5055970;28;20227;-86
2023/06/20 02:01:58;;;;;;;8.17;6.10;;;25.00;99.90;;;;;;5056223;28;20180;-86
2023/06/20 02:04:26;;;;;;;7.70;6.13;;;24.90;1.00;;;;;;5038135;28;20525;-84
2023/06/20 02:06:53;;;;;;;7.90;6.63;;;24.90;1.00;;;;;;5057210;28;20175;-86
2023/06/20 02:09:39;;;;;;;6.87;5.53;;;24.90;1.00;;;;;;5057283;28;20168;-88
2023/06/20 02:12:07;;;;;;;8.10;5.37;;;25.00;1.00;;;;;;5056494;28;20253;-86
2023/06/20 02:14:33;;;;;;;7.13;5.50;;;24.80;1.00;;;;;;5056576;28;20250;-86
2023/06/20 02:17:01;;;;;;;8.37;6.37;;;24.70;1.00;;;;;;5056260;28;20255;-86
2023/06/20 02:19:26;;;;;;;8.27;5.97;;;24.60;1.00;;;;;;5063304;28;20223;-82
2023/06/20 02:21:55;;;;;;;6.93;6.10;;;24.60;1.00;;;;;;5069286;28;20170;-84
2023/06/20 02:24:22;;;;;;;6.97;5.87;;;24.50;1.00;;;;;;5066080;28;20196;-85
2023/06/20 02:26:49;;;;;;;7.57;5.40;;;24.40;1.00;;;;;;5066828;28;20180;-84
2023/06/20 02:29:16;;;;;;;8.33;6.40;;;24.40;1.00;;;;;;5065363;28;20169;-84
2023/06/20 02:31:47;;;;;;;7.90;6.47;;;24.20;1.00;;;;;;5066844;28;20601;-86
2023/06/20 02:34:18;;;;;;;7.07;6.10;;;24.20;1.00;;;;;;5052206;28;20240;-85
2023/06/20 02:36:45;;;;;;;7.10;5.87;;;24.20;1.00;;;;;;5047323;28;20242;-86
2023/06/20 02:39:11;;;;;;;8.93;6.10;;;24.20;1.00;;;;;;5058256;28;20187;-83
2023/06/20 02:41:36;;;;;;;7.67;6.20;;;24.10;1.00;;;;;;5059898;28;20164;-87
2023/06/20 02:44:04;;;;;;;7.17;6.03;;;23.80;1.00;;;;;;5058972;28;20172;-85
2023/06/20 02:46:31;;;;;;;9.53;7.33;;;23.60;1.00;;;;;;5058141;28;20531;-82
2023/06/20 02:49:26;;;;;;;9.70;7.20;;;23.50;1.00;;;;;;5057165;28;20163;-84
2023/06/20 02:52:21;;;;;;;8.03;7.03;;;23.50;1.00;;;;;;5055461;28;20185;-86
2023/06/20 02:54:59;;;;;;;8.07;6.80;;;23.30;1.00;;;;;;5048601;28;20196;-86
2023/06/20 02:57:28;;;;;;;8.43;6.80;;;23.10;1.00;;;;;;5038440;28;20176;-84
2023/06/20 03:00:09;;;;;;;7.53;6.47;;;23.10;1.00;;;;;;5056043;28;20161;-86
2023/06/20 03:03:08;;;;;;;9.87;6.90;;;23.00;1.00;;;;;;5039453;28;20244;-87
2023/06/20 03:05:38;;;;;;;9.67;6.07;;;22.90;1.00;;;;;;5011075;28;20173;-85
2023/06/20 03:08:05;;;;;;;8.97;6.23;;;22.90;1.00;;;;;;5055915;28;20184;-80
2023/06/20 03:10:35;;;;;;;10.13;7.13;;;22.80;1.00;;;;;;5037280;28;20161;-80
2023/06/20 03:13:02;;;;;;;7.20;6.50;;;22.70;1.00;;;;;;5054759;28;20211;-83
2023/06/20 03:15:28;;;;;;;9.03;6.30;;;22.60;1.00;;;;;;5055187;28;20188;-86
2023/06/20 03:17:54;;;;;;;7.40;6.30;;;22.60;1.00;;;;;;5054648;28;20173;-84
2023/06/20 03:20:20;;;;;;;8.80;6.17;;;22.60;1.00;;;;;;5053202;28;20180;-83
2023/06/20 03:22:45;;;;;;;7.10;6.37;;;22.60;1.00;;;;;;5055271;28;20627;-86
2023/06/20 03:25:11;;;;;;;7.17;6.17;;;22.50;1.00;;;;;;5057572;28;20180;-81
2023/06/20 03:27:37;;;;;;;7.67;6.07;;;22.50;1.00;;;;;;5058697;28;20388;-80
2023/06/20 03:30:04;;;;;;;8.70;6.53;;;22.50;1.00;;;;;;5037933;28;20690;-78
2023/06/20 03:32:29;;;;;;;7.43;6.30;;;22.50;1.00;;;;;;5054147;28;20173;-86
2023/06/20 03:34:58;;;;;;;7.20;5.83;;;22.50;1.00;;;;;;5055129;28;20261;-82
2023/06/20 03:37:24;;;;;;;7.27;6.10;;;22.50;1.00;;;;;;5055110;28;20168;-85
2023/06/20 03:39:49;;;;;;;6.33;5.73;;;22.60;1.00;;;;;;5053450;28;20195;-82
2023/06/20 03:42:15;;;;;;;9.53;6.10;;;22.60;1.00;;;;;;5055228;28;20172;-83
2023/06/20 03:44:41;;;;;;;6.53;5.93;;;22.60;1.00;;;;;;5056604;28;20216;-81
2023/06/20 03:47:06;;;;;;;7.37;5.87;;;22.70;1.00;;;;;;5054931;28;20200;-82
2023/06/20 03:49:32;;;;;;;6.73;5.80;;;22.70;1.00;;;;;;5057236;28;20177;-80
2023/06/20 03:51:58;;;;;;;6.40;5.57;;;22.70;1.00;;;;;;5055937;28;20657;-81
2023/06/20 03:54:23;;;;;;;7.27;5.63;;;22.50;1.00;;;;;;5053853;28;20230;-85
2023/06/20 03:56:49;;;;;;;7.90;5.87;;;22.40;1.00;;;;;;5054068;28;20193;-86
2023/06/20 03:59:15;;;;;;;6.73;5.93;;;22.30;1.00;;;;;;5054129;28;20180;-86
2023/06/20 04:01:41;;;;;;;6.63;5.57;;;22.40;1.00;;;;;;5053126;28;20253;-82
2023/06/20 04:04:07;;;;;;;6.73;6.03;;;22.50;1.00;;;;;;5053650;28;20188;-86
2023/06/20 04:06:32;;;;;;;7.73;5.63;;;22.50;1.00;;;;;;5053956;28;20247;-82
2023/06/20 04:08:58;;;;;;;7.10;5.13;;;22.40;1.00;;;;;;5041574;28;20751;-82
2023/06/20 04:11:24;;;;;;;6.27;5.50;;;22.40;1.00;;;;;;5048066;28;20193;-78
2023/06/20 04:13:49;;;;;;;6.20;5.13;;;22.30;1.00;;;;;;5077631;28;20242;-77
2023/06/20 04:16:15;;;;;;;5.90;5.30;;;22.20;1.00;;;;;;5058018;28;20172;-77
2023/06/20 04:18:41;;;;;;;5.87;5.17;;;22.20;1.00;;;;;;5077474;28;20202;-79
2023/06/20 04:21:07;;;;;;;7.17;5.50;;;22.20;1.00;;;;;;5076021;28;20181;-84
2023/06/20 04:23:34;;;;;;;6.93;5.10;;;22.20;1.00;;;;;;5066709;28;20173;-80
2023/06/20 04:26:01;;;;;;;5.93;5.10;;;22.20;1.00;;;;;;5065162;28;20172;-83
2023/06/20 04:28:29;;;;;;;6.30;4.57;;;22.30;1.00;;;;;;5058641;28;20688;-79
2023/06/20 04:30:56;;;;;;;6.30;5.03;;;22.30;1.00;;;;;;5040860;28;20180;-78
2023/06/20 04:33:23;;;;;;;5.00;4.50;;;22.40;1.00;;;;;;5040092;28;20224;-79
2023/06/20 04:35:48;;;;;;;6.27;5.10;;;22.30;1.00;;;;;;5056920;28;20192;-84
2023/06/20 04:38:14;;;;;;;5.10;4.60;;;22.40;1.00;;;;;;5039986;28;20188;-84
2023/06/20 04:40:41;;;;;;;5.73;4.87;;;22.50;1.00;;;;;;5057840;28;20157;-79
2023/06/20 04:43:07;;;;;;;6.83;4.90;;;22.60;1.00;;;;;;5057102;28;20159;-85
2023/06/20 04:45:32;;;;;;;5.50;4.97;;;22.70;1.00;;;;;;5047469;28;20256;-79
2023/06/20 04:47:58;;;;;;;5.93;4.60;;;22.70;1.00;;;;;;5062311;28;20224;-78
2023/06/20 04:50:24;;;;;;;5.57;4.90;;;22.70;1.00;;;;;;5064803;28;20854;-86
2023/06/20 04:52:49;;;;;;;6.13;4.57;;;22.70;1.00;;;;;;5061096;28;20216;-85
2023/06/20 04:55:15;;;;;;;5.73;4.57;;;22.70;1.00;;;;;;5057115;28;20184;-79
2023/06/20 04:57:42;;;;;;;4.90;4.40;;;22.80;1.00;;;;;;5042110;28;20173;-82
2023/06/20 05:00:13;;;;;;;7.63;4.80;;;22.90;1.00;;;;;;5064950;28;20238;-79
2023/06/20 05:02:44;;;;;;;6.03;4.43;;;22.80;1.00;;;;;;5069545;28;20240;-77
2023/06/20 05:05:10;;;;;;;5.97;4.73;;;22.70;1.00;;;;;;5070483;28;20271;-79
2023/06/20 05:07:41;;;;;;;6.10;4.37;;;22.70;1.00;;;;;;5066292;28;20222;-80
2023/06/20 05:10:07;;;;;;;6.53;4.90;;;22.70;1.00;;;;;;5075050;28;20175;-78
2023/06/20 05:12:32;;;;;;;6.37;4.73;;;22.60;1.00;;;;;;5073830;28;20191;-77
2023/06/20 05:14:59;;;;;;;6.50;4.50;;;22.60;1.00;;;;;;5064794;28;20628;-83
2023/06/20 05:17:25;;;;;;;5.67;4.60;;;22.60;1.00;;;;;;5047605;28;20176;-83
2023/06/20 05:19:51;;;;;;;6.67;5.30;;;22.70;1.00;;;;;;5058341;28;20177;-87
2023/06/20 05:22:22;;;;;;;6.13;4.47;;;22.70;1.00;;;;;;5058294;28;20177;-80
2023/06/20 05:24:48;;;;;;;5.70;5.00;;;22.70;1.00;;;;;;5057184;28;20176;-80
2023/06/20 05:27:13;;;;;;;6.73;4.50;;;22.70;1.00;;;;;;5056682;28;20207;-83
2023/06/20 05:29:39;;;;;;;6.33;5.33;;;22.80;1.00;;;;;;5056567;28;20593;-86
2023/06/20 05:32:06;;;;;;;6.80;5.30;;;22.80;1.00;;;;;;5057308;28;20582;-85
2023/06/20 05:34:32;;;;;;;7.60;4.73;;;22.90;1.00;;;;;;5055723;28;20219;-80
2023/06/20 05:36:58;;;;;;;7.80;4.97;;;23.20;1.00;;;;;;5054452;28;20228;-82
2023/06/20 05:39:24;;;;;;;6.47;4.87;;;23.40;1.00;;;;;;5055012;28;20217;-81
2023/06/20 05:41:49;;;;;;;6.77;4.70;;;23.60;1.00;;;;;;5055310;28;20185;-82
2023/06/20 05:44:16;;;;;;;5.70;4.30;;;23.60;1.00;;;;;;5055833;28;20256;-81
2023/06/20 05:46:42;;;;;;;5.90;4.73;;;23.70;1.00;;;;;;5055782;28;20235;-81
2023/06/20 05:49:10;;;;;;;6.53;4.50;;;23.80;1.00;;;;;;5053682;28;20177;-81
2023/06/20 05:51:36;;;;;;;6.77;4.73;;;23.90;1.00;;;;;;5055822;28;20196;-82
2023/06/20 05:54:01;;;;;;;6.13;4.03;;;23.90;1.00;;;;;;5042457;28;20653;-81
2023/06/20 05:56:27;;;;;;;7.47;4.37;;;24.00;1.00;;;;;;5059665;28;20579;-81
2023/06/20 05:58:53;;;;;;;4.67;4.17;;;24.10;1.00;;;;;;5059868;28;20260;-80
2023/06/20 06:01:18;;;;;;;5.77;4.17;;;24.30;1.00;;;;;;5056010;28;20165;-81
2023/06/20 06:03:47;;;;;;;9.07;4.80;;;24.40;1.00;;;;;;5055320;28;20237;-80
2023/06/20 06:06:13;;;;;;;10.40;4.70;;;24.50;1.00;;;;;;5037546;28;20161;-82
2023/06/20 06:08:40;;;;;;;6.37;4.10;;;24.70;1.00;;;;;;5056566;28;20177;-80
2023/06/20 06:11:07;;;;;;;4.13;3.73;;;24.80;1.00;;;;;;5056650;28;20169;-82
2023/06/20 06:13:33;;;;;;;7.37;4.47;;;24.90;1.00;;;;;;5036746;28;20273;-82
2023/06/20 06:15:59;;;;;;;7.10;4.40;;;25.00;1.00;;;;;;5055772;28;20658;-81
2023/06/20 06:18:25;;;;;;;6.90;4.23;;;25.10;1.00;;;;;;5054383;28;20209;-80
2023/06/20 06:20:51;;;;;;;6.13;4.23;;;25.00;1.00;;;;;;5055702;28;20169;-81
2023/06/20 06:23:17;;;;;;;5.10;4.23;;;25.00;1.00;;;;;;5054482;28;20241;-83
2023/06/20 06:25:44;;;;;;;5.07;3.90;;;25.20;1.00;;;;;;5055180;28;20169;-80
2023/06/20 06:28:10;;;;;;;7.03;4.60;;;25.20;1.00;;;;;;5036241;28;20181;-80
2023/06/20 06:30:36;;;;;;;6.20;4.20;;;25.20;1.00;;;;;;5054667;28;20173;-80
2023/06/20 06:33:03;;;;;;;6.33;4.10;;;25.30;1.00;;;;;;5053405;28;20195;-82
2023/06/20 06:35:31;;;;;;;5.97;4.33;;;25.30;1.00;;;;;;5055390;28;20193;-83
2023/06/20 06:37:57;;;;;;;9.63;5.37;;;25.30;1.00;;;;;;5055891;28;20161;-78
2023/06/20 06:40:24;;;;;;;5.93;3.67;;;25.20;1.00;;;;;;5037866;28;20191;-79
2023/06/20 06:42:49;;;;;;;5.57;4.37;;;25.10;1.00;;;;;;5056611;28;20218;-84
2023/06/20 06:45:15;;;;;;;8.17;4.77;;;25.30;1.00;;;;;;5038164;28;20235;-81
2023/06/20 06:47:43;;;;;;;8.97;4.23;;;25.40;1.00;;;;;;5058092;28;20654;-77
2023/06/20 06:50:09;;;;;;;5.53;4.00;;;25.60;1.00;;;;;;5061634;28;20196;-78
2023/06/20 06:52:34;;;;;;;7.40;3.83;;;25.60;1.00;;;;;;5059124;28;20177;-82
2023/06/20 06:55:01;;;;;;;5.33;3.60;;;25.60;1.00;;;;;;5058372;28;20170;-83
2023/06/20 06:57:26;;;;;;;7.57;3.63;;;25.40;1.00;;;;;;5042544;28;20255;-83
2023/06/20 06:59:52;;;;;;;6.90;3.87;;;25.60;1.00;;;;;;5062634;28;20194;-77
2023/06/20 07:02:18;;;;;;;5.03;3.90;;;25.60;1.00;;;;;;5061288;28;20181;-82
2023/06/20 07:04:45;;;;;;;4.55;3.35;;;25.40;1.00;;;;;;5059024;28;20633;-85
2023/06/20 07:07:11;;;;;;;4.17;3.23;;;25.40;1.00;;;;;;5055625;28;20175;-86
2023/06/20 07:09:36;;;;;;;6.00;3.50;;;25.30;1.00;;;;;;5056473;28;20165;-85
2023/06/20 07:12:05;;;;;;;6.57;3.93;;;25.40;1.00;;;;;;5056333;28;20577;-82
2023/06/20 07:14:32;;;;;;;5.87;3.43;;;25.50;1.00;;;;;;5055589;28;20191;-84
2023/06/20 07:16:57;;;;;;;5.03;3.40;;;25.60;1.00;;;;;;5055067;28;20184;-87
2023/06/20 07:19:23;;;;;;;7.05;4.03;;;25.80;1.00;;;;;;5055236;28;20184;-85
2023/06/20 07:21:49;;;;;;;5.10;3.30;;;25.80;1.00;;;;;;5056383;28;20176;-84
2023/06/20 07:24:16;;;;;;;4.85;3.38;;;25.80;1.00;;;;;;5057341;28;20520;-85
2023/06/20 07:26:42;;;;;;;5.70;3.73;;;25.60;1.00;;;;;;5056488;28;20260;-86
2023/06/20 07:29:07;;;;;;;4.60;3.83;;;25.50;1.00;;;;;;5057182;28;20720;-87
2023/06/20 07:31:33;;;;;;;5.03;3.60;;;25.50;1.00;;;;;;5055487;28;20167;-85
2023/06/20 07:34:00;;;;;;;5.53;3.57;;;25.50;1.00;;;;;;5055215;28;20196;-84
2023/06/20 07:36:25;;;;;;;7.07;3.57;;;25.60;1.00;;;;;;5054901;28;20645;-81
2023/06/20 07:38:51;;;;;;;4.60;3.60;;;25.80;1.00;;;;;;5055881;28;20269;-85
2023/06/20 07:41:17;;;;;;;4.22;3.83;;;25.70;1.00;;;;;;5055711;28;20187;-85
2023/06/20 07:43:43;;;;;;;5.40;3.75;;;25.60;1.00;;;;;;5055429;28;20184;-86
2023/06/20 07:46:09;;;;;;;6.30;5.00;;;25.60;1.00;;;;;;5055271;28;20173;-85
2023/06/20 07:48:34;;;;;;;6.03;3.53;;;25.80;1.00;;;;;;5055480;28;20196;-85
2023/06/20 07:51:00;;;;;;;5.68;3.40;;;25.60;1.00;;;;;;5055002;28;20177;-85
2023/06/20 07:53:26;;;;;;;7.20;3.63;;;25.70;1.00;;;;;;5054594;28;20209;-86
2023/06/20 07:55:55;;;;;;;8.50;3.70;;;25.90;1.00;;;;;;5054719;28;20172;-84
2023/06/20 07:58:21;;;;;;;6.20;3.53;;;26.00;1.00;;;;;;5037783;28;20183;-87
2023/06/20 08:00:47;;;;;;;7.55;3.65;;;26.20;1.00;;;;;;5055201;28;20168;-86
2023/06/20 08:03:14;;;;;;;4.80;3.70;;;26.30;1.00;;;;;;5053982;28;20288;-87
2023/06/20 08:05:39;;;;;;;4.60;3.53;;;26.60;1.00;;;;;;5076047;28;20175;-86
2023/06/20 08:08:06;;;;;;;7.45;3.90;;;26.70;1.00;;;;;;5075669;28;20157;-78
2023/06/20 08:10:32;;;;;;;7.63;3.92;;;26.70;1.00;;;;;;5077140;28;20188;-77
2023/06/20 08:12:57;;;;;;;4.95;3.47;;;26.90;1.00;;;;;;5059091;28;20311;-85
2023/06/20 08:15:26;;;;;;;5.32;3.70;;;26.80;1.00;;;;;;5076633;28;20180;-80
2023/06/20 08:17:55;;;;;;;5.22;3.20;;;26.70;1.00;;;;;;5065549;28;20185;-86
2023/06/20 08:20:23;;;;;;;5.32;3.22;;;26.90;1.00;;;;;;5056393;28;20189;-87
2023/06/20 08:22:50;;;;;;;8.18;4.72;;;27.10;1.00;;;;;;5057993;28;20209;-87
2023/06/20 08:25:16;;;;;;;4.88;3.30;;;27.20;1.00;;;;;;5062194;28;20538;-86
2023/06/20 08:27:41;;;;;;;4.68;3.00;;;27.20;1.00;;;;;;5064116;28;20178;-86
2023/06/20 08:30:09;;;;;;;3.65;2.83;;;27.20;1.00;;;;;;5062993;28;20169;-86
2023/06/20 08:32:38;;;;;;;5.47;3.30;;;27.10;1.00;;;;;;5071138;28;20173;-80
2023/06/20 08:35:04;;;;;;;4.25;3.28;;;27.10;1.00;;;;;;5059484;28;20168;-84
2023/06/20 08:37:29;;;;;;;6.13;3.50;;;27.10;1.00;;;;;;5075169;28;20185;-84
2023/06/20 08:39:55;;;;;;;4.55;3.20;;;27.20;1.00;;;;;;5064410;28;20180;-86
2023/06/20 08:42:30;;;;;;;7.00;3.38;;;27.30;1.00;;;;;;5061371;28;20176;-83
2023/06/20 08:45:20;;;;;;;5.18;3.03;;;27.30;1.00;;;;;;5075584;28;20183;-80
2023/06/20 08:47:46;;;;;;;4.60;3.25;;;27.20;1.00;;;;;;5075407;28;20179;-85
2023/06/20 08:50:12;;;;;;;6.00;3.58;;;27.20;1.00;;;;;;5073627;28;20177;-85
2023/06/20 08:52:48;;;;;;;10.43;5.45;;;27.00;1.00;;;;;;5065446;28;20169;-87
2023/06/20 08:55:15;;;;;;;6.03;3.33;;;26.90;1.00;;;;;;5042847;28;20180;-87
2023/06/20 08:57:41;;;;;;;5.53;3.50;;;27.00;1.00;;;;;;5060107;28;20574;-86
2023/06/20 09:00:11;;;;;;;8.27;4.20;;;27.20;1.00;;;;;;5058810;28;20161;-86
2023/06/20 09:02:37;;;;;;;4.28;3.17;;;27.30;1.00;;;;;;5059212;28;20165;-86
2023/06/20 09:05:06;;;;;;;4.82;3.42;;;27.40;1.00;;;;;;5059482;28;20264;-86
2023/06/20 09:07:39;;;;;;;8.15;3.88;;;27.60;1.00;;;;;;5057994;28;20224;-87
2023/06/20 09:10:06;;;;;;;7.22;3.45;;;27.70;1.00;;;;;;5059185;28;20169;-87
2023/06/20 09:12:48;;;;;;;5.70;3.28;;;27.90;1.00;;;;;;5057539;28;20169;-86
2023/06/20 09:15:15;;;;;;;12.02;5.20;;;28.10;1.00;;;;;;5058438;28;20168;-87
2023/06/20 09:17:44;;;;;;;9.93;6.32;;;28.10;1.00;;;;;;5059114;28;20245;-82
2023/06/20 09:20:11;;;;;;;3.72;3.35;;;28.20;1.00;;;;;;5060395;28;20173;-85
2023/06/20 09:22:39;;;;;;;6.32;3.50;;;27.80;1.00;;;;;;5060813;28;20165;-85
2023/06/20 09:25:06;;;;;;;4.93;3.03;;;27.70;1.00;;;;;;5058634;28;20165;-85
2023/06/20 09:27:37;;;;;;;5.35;3.38;;;27.90;1.00;;;;;;5057685;28;20169;-86
2023/06/20 09:30:04;;;;;;;5.63;3.25;;;28.10;1.00;;;;;;5058462;28;20171;-85
2023/06/20 09:32:35;;;;;;;5.70;2.85;;;28.20;1.00;;;;;;5057649;28;20177;-85
2023/06/20 09:35:05;;;;;;;4.80;3.20;;;28.50;99.90;;;;;;5056686;28;20203;-84
2023/06/20 09:37:51;;;;;;;11.40;10.13;;;28.70;99.90;;;;;;5055910;28;20180;-81
2023/06/20 09:40:20;;;;;;;4.28;3.15;;;28.80;99.90;;;;;;5045804;28;20180;-87
2023/06/20 09:42:47;;;;;;;5.28;3.17;;;28.70;99.90;;;;;;5063640;28;20157;-85
2023/06/20 09:45:15;;;;;;;3.95;2.53;;;28.50;99.90;;;;;;5050821;28;20149;-83
2023/06/20 09:47:43;;;;;;;4.78;2.67;;;28.50;99.90;;;;;;5075495;28;20161;-83
2023/06/20 09:50:13;;;;;;;3.40;2.88;;;28.60;99.90;;;;;;5073855;28;20571;-82
2023/06/20 09:52:53;;;;;;;4.65;3.38;;;28.70;99.90;;;;;;5074706;28;20220;-85
2023/06/20 09:55:21;;;;;;;4.43;3.30;;;28.90;99.90;;;;;;5056519;28;20172;-83
2023/06/20 09:57:58;;;;;;;4.88;3.22;;;29.00;99.90;;;;;;5072346;28;20184;-80
2023/06/20 10:00:27;;;;;;;6.40;3.13;;;29.00;99.90;;;;;;5031749;28;20202;-83
2023/06/20 10:02:53;;;;;;;4.10;3.00;;;29.00;99.90;;;;;;5068549;28;20150;-84
2023/06/20 10:05:21;;;;;;;5.28;3.40;;;29.20;99.90;;;;;;5054238;28;20208;-83
2023/06/20 10:07:48;;;;;;;5.68;3.20;;;29.10;99.90;;;;;;5072114;28;20164;-84
2023/06/20 10:10:17;;;;;;;5.10;3.00;;;29.10;99.90;;;;;;5072151;28;20176;-85
2023/06/20 10:12:47;;;;;;;3.53;3.03;;;29.20;99.90;;;;;;5066236;28;20168;-86
2023/06/20 10:15:14;;;;;;;4.70;3.05;;;29.30;99.90;;;;;;5061801;28;20656;-85
2023/06/20 10:17:42;;;;;;;4.10;2.88;;;29.30;99.90;;;;;;5060472;28;20201;-85
2023/06/20 10:20:23;;;;;;;3.85;3.33;;;29.50;99.90;;;;;;5056493;28;20718;-88
2023/06/20 10:22:49;;;;;;;4.32;3.13;;;29.60;99.90;;;;;;5057533;28;20541;-85
2023/06/20 10:25:20;;;;;;;4.15;3.30;;;29.80;99.90;;;;;;5056177;28;20185;-86
2023/06/20 10:28:03;;;;;;;5.03;3.63;;;29.90;99.90;;;;;;5057169;28;20187;-86
2023/06/20 10:30:50;;;;;;;5.38;3.30;;;30.00;99.90;;;;;;5057040;28;20173;-84
2023/06/20 10:33:36;;;;;;;4.25;3.58;;;30.00;99.90;;;;;;5056183;28;20196;-81
2023/06/20 10:36:05;;;;;;;6.03;3.55;;;29.80;99.90;;;;;;5058112;28;20181;-84
2023/06/20 10:38:42;;;;;;;5.68;3.70;;;29.60;99.90;;;;;;5056395;28;20368;-86
2023/06/20 10:41:09;;;;;;;6.28;3.75;;;29.50;99.90;;;;;;5056131;28;20268;-85
2023/06/20 10:43:58;;;;;;;6.28;4.00;;;29.30;99.90;;;;;;5056148;28;20243;-86
2023/06/20 10:46:43;;;;;;;6.75;3.63;;;29.40;99.90;;;;;;5056744;28;20207;-85
2023/06/20 10:49:10;;;;;;;7.63;4.50;;;29.40;99.90;;;;;;5056066;28;20153;-85
2023/06/20 10:51:47;;;;;;;5.47;4.07;;;29.30;99.90;;;;;;5057320;28;20173;-86
2023/06/20 10:54:14;;;;;;;4.10;3.58;;;29.50;99.90;;;;;;5056892;28;20193;-85
2023/06/20 10:56:40;;;;;;;4.70;4.10;;;29.70;99.90;;;;;;5057402;28;20637;-86
2023/06/20 10:59:14;;;;;;;5.50;4.10;;;30.00;99.90;;;;;;5057255;28;20181;-85
2023/06/20 11:01:41;;;;;;;4.20;3.53;;;30.20;99.90;;;;;;5057845;28;20204;-86
2023/06/20 11:04:08;;;;;;;6.95;3.80;;;30.30;99.90;;;;;;5058309;28;20169;-86
2023/06/20 11:06:33;;;;;;;7.95;4.07;;;30.30;99.90;;;;;;5055703;28;20181;-87
2023/06/20 11:08:59;;;;;;;6.28;3.92;;;30.20;99.90;;;;;;5057970;28;20582;-86
2023/06/20 11:11:51;;;;;;;5.25;4.10;;;30.40;99.90;;;;;;5058229;28;20173;-80
2023/06/20 11:14:22;;;;;;;6.10;4.05;;;30.60;20.40;;;;;;5058378;28;20735;-83
2023/06/20 11:16:50;;;;;;;4.80;3.70;;;30.80;1.00;;;;;;5057379;28;20195;-80
2023/06/20 11:19:20;;;;;;;6.18;3.67;;;31.00;1.00;;;;;;5060709;28;20241;-79
2023/06/20 11:21:46;;;;;;;4.38;3.60;;;30.80;99.90;;;;;;5065015;28;20173;-82
2023/06/20 11:24:12;;;;;;;5.43;3.72;;;30.60;1.00;;;;;;5065463;28;20230;-82
2023/06/20 11:26:39;;;;;;;4.40;3.60;;;30.70;1.00;;;;;;5067689;28;20637;-84
2023/06/20 11:29:05;;;;;;;4.90;3.75;;;30.70;1.00;;;;;;5068792;28;20223;-81
2023/06/20 11:31:32;;;;;;;7.25;3.67;;;30.80;99.90;;;;;;5070309;28;20173;-84
2023/06/20 11:34:07;;;;;;;5.88;4.18;;;30.70;99.90;;;;;;5067788;28;20200;-77
2023/06/20 11:36:34;;;;;;;8.10;3.63;;;30.50;99.90;;;;;;5072862;28;20211;-85
2023/06/20 11:39:07;;;;;;;7.82;4.25;;;30.10;99.90;;;;;;5072912;28;20169;-83
2023/06/20 11:41:34;;;;;;;6.18;3.20;;;30.20;1.00;;;;;;5068431;28;20226;-85
2023/06/20 11:44:02;;;;;;;4.35;3.30;;;30.30;99.90;;;;;;5060223;28;20177;-80
2023/06/20 11:46:29;;;;;;;5.60;3.78;;;30.50;99.90;;;;;;5057560;28;20165;-85
2023/06/20 11:48:56;;;;;;;7.30;4.18;;;30.60;57.00;;;;;;5057039;28;20161;-82
2023/06/20 11:51:25;;;;;;;5.47;3.53;;;30.50;1.00;;;;;;5055859;28;20294;-80
2023/06/20 11:54:09;;;;;;;4.57;3.60;;;30.50;1.00;;;;;;5075368;28;20189;-78
2023/06/20 11:56:35;;;;;;;5.25;3.78;;;30.60;1.00;;;;;;5076695;28;20152;-79
2023/06/20 11:59:03;;;;;;;4.20;3.50;;;30.70;1.00;;;;;;5075894;28;20221;-78
2023/06/20 12:01:32;;;;;;;5.05;3.42;;;30.50;99.90;;;;;;5073567;28;20161;-78
2023/06/20 12:04:10;;;;;;;3.85;3.30;;;30.40;99.90;;;;;;5075416;28;20145;-79
2023/06/20 12:07:29;;;;;;;5.47;3.67;;;30.40;1.00;;;;;;5065643;28;20231;-84
2023/06/20 12:10:18;;;;;;;7.70;4.25;;;30.20;1.00;;;;;;5060858;28;20207;-87
2023/06/20 12:12:45;;;;;;;5.20;3.70;;;30.20;99.90;;;;;;5056730;28;20232;-82
2023/06/20 12:15:11;;;;;;;5.18;3.97;;;30.50;1.00;;;;;;5059735;28;20169;-85
2023/06/20 12:17:37;;;;;;;4.80;3.50;;;30.50;99.90;;;;;;5062524;28;20154;-83
2023/06/20 12:20:03;;;;;;;3.88;3.10;;;30.60;52.50;;;;;;5056573;28;20188;-87
2023/06/20 12:22:35;;;;;;;6.38;3.75;;;30.60;1.00;;;;;;5055782;28;20161;-82
2023/06/20 12:25:11;;;;;;;4.55;3.20;;;30.80;1.00;;;;;;5055468;28;20629;-83
2023/06/20 12:27:37;;;;;;;6.93;3.33;;;30.90;62.60;;;;;;5038952;28;20191;-81
2023/06/20 12:30:03;;;;;;;5.85;3.38;;;30.90;1.00;;;;;;5039274;28;20239;-80
2023/06/20 12:32:29;;;;;;;6.60;3.60;;;30.90;1.00;;;;;;5063249;28;20165;-78
2023/06/20 12:34:54;;;;;;;4.03;3.10;;;30.90;1.00;;;;;;5048753;28;20306;-76
2023/06/20 12:37:22;;;;;;;5.15;3.20;;;31.10;1.00;;;;;;5064474;28;20157;-79
2023/06/20 12:39:47;;;;;;;4.88;3.47;;;31.10;99.90;;;;;;5068875;28;20176;-80
2023/06/20 12:42:16;;;;;;;4.43;3.35;;;31.10;99.90;;;;;;5061512;28;20191;-77
2023/06/20 12:44:59;;;;;;;7.13;3.47;;;30.90;99.90;;;;;;5043786;28;20175;-80
2023/06/20 12:47:27;;;;;;;5.38;3.60;;;30.70;99.90;;;;;;5060854;28;20176;-79
2023/06/20 12:49:53;;;;;;;7.78;3.85;;;30.70;91.20;;;;;;5023708;28;20181;-81
2023/06/20 12:52:18;;;;;;;7.65;3.67;;;30.90;14.30;;;;;;5058571;28;20195;-77
2023/06/20 12:54:44;;;;;;;6.65;3.42;;;30.90;1.00;;;;;;5068631;28;20566;-79
2023/06/20 12:57:10;;;;;;;6.88;3.47;;;30.90;99.70;;;;;;5060197;28;20646;-86
2023/06/20 12:59:35;;;;;;;4.25;3.35;;;30.70;99.90;;;;;;5059374;28;20180;-79
2023/06/20 13:02:01;;;;;;;6.40;3.25;;;30.60;99.90;;;;;;5059110;28;20164;-83